sensor_id;sensor_type;location;lat;lon;timestamp;pressure;altitude;pressure_sealevel;temperature;humidity
65054;BME280;51639;47.828;35.038;2023-05-10T00:01:53;100875.69;;;10.63;100.00
65054;BME280;51639;47.828;35.038;2023-05-10T00:16:56;100870.34;;;10.52;100.00
65054;BME280;51639;47.828;35.038;2023-05-10T00:31:58;100867.25;;;10.46;100.00
65054;BME280;51639;47.828;35.038;2023-05-10T00:47:01;100872.81;;;10.32;100.00
65054;BME280;51639;47.828;35.038;2023-05-10T01:02:03;100854.94;;;10.35;100.00
65054;BME280;51639;47.828;35.038;2023-05-10T01:17:07;100852.66;;;10.26;100.00
65054;BME280;51639;47.828;35.038;2023-05-10T01:47:42;100827.94;;;10.10;100.00
65054;BME280;51639;47.828;35.038;2023-05-10T02:02:47;100826.47;;;9.95;100.00
65054;BME280;51639;47.828;35.038;2023-05-10T02:17:52;100828.84;;;9.89;100.00
65054;BME280;51639;47.828;35.038;2023-05-10T02:32:57;100831.94;;;9.87;100.00
65054;BME280;51639;47.828;35.038;2023-05-10T02:48:00;100837.72;;;9.93;100.00
65054;BME280;51639;47.828;35.038;2023-05-10T03:03:06;100834.16;;;10.07;100.00
65054;BME280;51639;47.828;35.038;2023-05-10T03:18:31;100832.16;;;10.21;100.00
65054;BME280;51639;47.828;35.038;2023-05-10T03:33:35;100848.75;;;10.34;100.00
65054;BME280;51639;47.828;35.038;2023-05-10T03:48:37;100850.59;;;10.44;100.00
65054;BME280;51639;47.828;35.038;2023-05-10T04:03:39;100854.41;;;11.36;100.00
65054;BME280;51639;47.828;35.038;2023-05-10T04:18:42;100847.53;;;12.23;100.00
65054;BME280;51639;47.828;35.038;2023-05-10T04:33:46;100839.06;;;12.91;100.00
65054;BME280;51639;47.828;35.038;2023-05-10T04:48:48;100833.25;;;13.32;100.00
65054;BME280;51639;47.828;35.038;2023-05-10T05:03:53;100825.47;;;13.70;100.00
65054;BME280;51639;47.828;35.038;2023-05-10T05:18:55;100819.59;;;14.24;91.11
65054;BME280;51639;47.828;35.038;2023-05-10T05:33:59;100819.34;;;15.12;76.33
65054;BME280;51639;47.828;35.038;2023-05-10T05:49:05;100830.00;;;14.13;82.86
65054;BME280;51639;47.828;35.038;2023-05-10T06:04:08;100829.69;;;14.27;78.14
65054;BME280;51639;47.828;35.038;2023-05-10T06:19:11;100813.22;;;14.30;80.16
65054;BME280;51639;47.828;35.038;2023-05-10T06:34:13;100813.88;;;16.08;68.04
65054;BME280;51639;47.828;35.038;2023-05-10T06:49:16;100813.91;;;16.55;55.67
65054;BME280;51639;47.828;35.038;2023-05-10T07:04:18;100819.88;;;15.65;55.98
65054;BME280;51639;47.828;35.038;2023-05-10T07:19:21;100813.63;;;15.35;57.03
65054;BME280;51639;47.828;35.038;2023-05-10T07:34:23;100817.75;;;14.70;62.38
65054;BME280;51639;47.828;35.038;2023-05-10T07:49:26;100806.06;;;14.98;65.45
65054;BME280;51639;47.828;35.038;2023-05-10T08:04:29;100815.00;;;14.86;68.29
65054;BME280;51639;47.828;35.038;2023-05-10T08:19:34;100801.75;;;15.13;65.25
65054;BME280;51639;47.828;35.038;2023-05-10T08:34:46;100824.22;;;14.27;72.34
65054;BME280;51639;47.828;35.038;2023-05-10T08:49:48;100805.81;;;14.47;85.71
65054;BME280;51639;47.828;35.038;2023-05-10T09:04:52;100799.53;;;15.37;75.28
65054;BME280;51639;47.828;35.038;2023-05-10T09:20:04;100789.50;;;16.95;61.84
65054;BME280;51639;47.828;35.038;2023-05-10T09:35:10;100799.44;;;15.41;62.66
65054;BME280;51639;47.828;35.038;2023-05-10T09:50:13;100800.84;;;14.42;99.76
65054;BME280;51639;47.828;35.038;2023-05-10T10:05:15;100779.75;;;17.16;69.91
65054;BME280;51639;47.828;35.038;2023-05-10T10:20:19;100763.03;;;18.44;58.41
65054;BME280;51639;47.828;35.038;2023-05-10T10:35:22;100788.50;;;16.67;54.06
65054;BME280;51639;47.828;35.038;2023-05-10T10:50:24;100755.00;;;17.60;60.91
65054;BME280;51639;47.828;35.038;2023-05-10T11:05:34;100754.47;;;18.23;50.41
65054;BME280;51639;47.828;35.038;2023-05-10T11:20:40;100753.00;;;17.08;49.34
65054;BME280;51639;47.828;35.038;2023-05-10T11:35:42;100738.31;;;17.76;46.74
65054;BME280;51639;47.828;35.038;2023-05-10T11:50:45;100733.69;;;18.13;46.63
65054;BME280;51639;47.828;35.038;2023-05-10T12:05:47;100737.22;;;17.43;45.18
65054;BME280;51639;47.828;35.038;2023-05-10T12:20:51;100725.09;;;17.31;45.84
65054;BME280;51639;47.828;35.038;2023-05-10T12:35:54;100759.63;;;15.52;64.44
65054;BME280;51639;47.828;35.038;2023-05-10T12:50:58;100769.38;;;14.83;70.41
65054;BME280;51639;47.828;35.038;2023-05-10T13:06:00;100759.34;;;15.21;71.89
65054;BME280;51639;47.828;35.038;2023-05-10T13:21:01;100746.66;;;15.82;58.80
65054;BME280;51639;47.828;35.038;2023-05-10T13:36:06;100736.09;;;16.18;55.34
65054;BME280;51639;47.828;35.038;2023-05-10T13:51:08;100752.19;;;16.29;53.36
65054;BME280;51639;47.828;35.038;2023-05-10T14:06:10;100764.72;;;15.79;55.30
65054;BME280;51639;47.828;35.038;2023-05-10T14:21:13;100763.38;;;15.71;54.12
65054;BME280;51639;47.828;35.038;2023-05-10T14:36:15;100766.66;;;15.66;61.96
65054;BME280;51639;47.828;35.038;2023-05-10T14:51:17;100765.66;;;15.18;64.10
65054;BME280;51639;47.828;35.038;2023-05-10T15:06:29;100764.88;;;14.76;70.85
65054;BME280;51639;47.828;35.038;2023-05-10T15:21:32;100766.19;;;14.39;74.64
65054;BME280;51639;47.828;35.038;2023-05-10T15:36:40;100759.69;;;14.33;79.54
65054;BME280;51639;47.828;35.038;2023-05-10T15:51:42;100755.59;;;14.25;77.24
65054;BME280;51639;47.828;35.038;2023-05-10T16:06:44;100755.25;;;14.07;75.12
65054;BME280;51639;47.828;35.038;2023-05-10T16:21:46;100762.16;;;13.95;76.51
65054;BME280;51639;47.828;35.038;2023-05-10T16:36:48;100770.41;;;13.75;76.68
65054;BME280;51639;47.828;35.038;2023-05-10T16:51:50;100770.16;;;13.50;76.08
65054;BME280;51639;47.828;35.038;2023-05-10T17:06:52;100773.81;;;13.43;75.21
65054;BME280;51639;47.828;35.038;2023-05-10T17:21:53;100773.63;;;13.34;77.50
65054;BME280;51639;47.828;35.038;2023-05-10T17:36:56;100785.59;;;13.20;83.21
65054;BME280;51639;47.828;35.038;2023-05-10T17:52:00;100801.03;;;13.04;89.04
65054;BME280;51639;47.828;35.038;2023-05-10T18:07:02;100811.56;;;12.82;92.08
65054;BME280;51639;47.828;35.038;2023-05-10T18:22:04;100810.94;;;12.74;91.28
65054;BME280;51639;47.828;35.038;2023-05-10T18:37:10;100815.84;;;12.59;94.45
65054;BME280;51639;47.828;35.038;2023-05-10T18:52:13;100815.38;;;12.41;95.85
65054;BME280;51639;47.828;35.038;2023-05-10T19:07:16;100814.75;;;11.76;100.00
65054;BME280;51639;47.828;35.038;2023-05-10T19:22:18;100808.81;;;12.12;100.00
65054;BME280;51639;47.828;35.038;2023-05-10T19:37:36;100815.69;;;11.93;100.00
65054;BME280;51639;47.828;35.038;2023-05-10T19:52:39;100810.84;;;11.77;100.00
65054;BME280;51639;47.828;35.038;2023-05-10T20:07:41;100808.13;;;11.77;96.43
65054;BME280;51639;47.828;35.038;2023-05-10T20:22:43;100797.75;;;11.65;95.59
65054;BME280;51639;47.828;35.038;2023-05-10T20:37:45;100789.44;;;11.49;96.47
65054;BME280;51639;47.828;35.038;2023-05-10T20:52:49;100797.22;;;11.47;97.29
65054;BME280;51639;47.828;35.038;2023-05-10T21:07:54;100795.09;;;11.31;99.29
65054;BME280;51639;47.828;35.038;2023-05-10T21:22:56;100800.69;;;11.13;99.44
65054;BME280;51639;47.828;35.038;2023-05-10T21:37:58;100809.50;;;10.87;100.00
65054;BME280;51639;47.828;35.038;2023-05-10T21:53:01;100803.47;;;10.69;100.00
65054;BME280;51639;47.828;35.038;2023-05-10T22:08:06;100794.66;;;10.57;100.00
65054;BME280;51639;47.828;35.038;2023-05-10T22:23:08;100803.59;;;10.54;100.00
65054;BME280;51639;47.828;35.038;2023-05-10T22:38:10;100807.97;;;10.41;100.00
65054;BME280;51639;47.828;35.038;2023-05-10T22:53:13;100780.59;;;10.18;100.00
65054;BME280;51639;47.828;35.038;2023-05-10T23:08:15;100800.19;;;9.84;100.00
65054;BME280;51639;47.828;35.038;2023-05-10T23:23:17;100796.38;;;9.71;100.00
65054;BME280;51639;47.828;35.038;2023-05-10T23:38:20;100795.31;;;9.51;100.00
65054;BME280;51639;47.828;35.038;2023-05-10T23:53:22;100795.72;;;9.46;100.00
